createdAt,value
2023-04-16T00:00:41.047Z,8
2023-04-16T00:01:41.068Z,8
2023-04-16T00:02:41.108Z,7.99
2023-04-16T00:03:41.231Z,8
2023-04-16T00:04:41.137Z,8
2023-04-16T00:05:41.048Z,7.99
2023-04-16T00:06:41.045Z,8
2023-04-16T00:07:41.086Z,8
2023-04-16T00:08:41.247Z,7.99
2023-04-16T00:09:43.540Z,7.99
2023-04-16T00:10:46.582Z,7.99
2023-04-16T00:12:41.069Z,8
2023-04-16T00:13:41.051Z,8.01
2023-04-16T00:14:41.042Z,8.01
2023-04-16T00:15:41.059Z,8.01
2023-04-16T00:16:41.076Z,8
2023-04-16T00:17:41.091Z,8.01
2023-04-16T00:18:41.062Z,8.01
2023-04-16T00:19:41.050Z,8.01
2023-04-16T00:20:41.061Z,8.01
2023-04-16T00:21:41.050Z,8.01
2023-04-16T00:22:41.053Z,8.01
2023-04-16T00:23:41.044Z,8.01
2023-04-16T00:24:41.050Z,8.02
2023-04-16T00:25:41.037Z,8
2023-04-16T00:26:41.053Z,8
2023-04-16T00:27:41.051Z,8
2023-04-16T00:28:41.056Z,8
2023-04-16T00:29:41.383Z,7.99
2023-04-16T00:30:43.606Z,7.99
2023-04-16T00:31:46.676Z,7.98
2023-04-16T00:33:41.061Z,7.97
2023-04-16T00:34:41.044Z,7.98
2023-04-16T00:35:41.070Z,7.97
2023-04-16T00:36:41.048Z,7.97
2023-04-16T00:37:41.125Z,7.97
2023-04-16T00:38:41.043Z,7.98
2023-04-16T00:39:41.040Z,7.97
2023-04-16T00:40:41.043Z,7.97
2023-04-16T00:41:41.057Z,7.97
2023-04-16T00:42:41.067Z,7.97
2023-04-16T00:43:41.047Z,7.99
2023-04-16T00:44:41.059Z,7.97
2023-04-16T00:45:41.060Z,7.97
2023-04-16T00:46:41.076Z,7.97
2023-04-16T00:47:41.080Z,7.96
2023-04-16T00:48:41.041Z,7.95
2023-04-16T00:49:41.043Z,7.94
2023-04-16T00:50:41.393Z,7.94
2023-04-16T00:51:43.687Z,7.94
2023-04-16T00:52:46.750Z,7.95
2023-04-16T00:54:41.055Z,7.96
2023-04-16T00:55:41.057Z,7.96
2023-04-16T00:56:41.035Z,7.97
2023-04-16T00:57:41.043Z,7.97
2023-04-16T00:58:41.187Z,7.97
2023-04-16T00:59:41.037Z,7.98
2023-04-16T01:00:41.045Z,7.98
2023-04-16T01:01:41.179Z,7.97
2023-04-16T01:02:41.135Z,7.98
2023-04-16T01:03:41.429Z,7.97
2023-04-16T01:04:41.059Z,7.98
2023-04-16T01:05:41.081Z,7.98
2023-04-16T01:06:41.059Z,7.98
2023-04-16T01:07:41.040Z,7.99
2023-04-16T01:08:41.054Z,7.99
2023-04-16T01:09:41.040Z,7.99
2023-04-16T01:10:41.047Z,7.98
2023-04-16T01:11:41.437Z,7.97
2023-04-16T01:12:43.722Z,7.97
2023-04-16T01:13:46.813Z,7.97
2023-04-16T01:15:41.090Z,7.97
2023-04-16T01:16:41.070Z,7.98
2023-04-16T01:17:41.129Z,7.97
2023-04-16T01:18:41.061Z,7.97
2023-04-16T01:19:41.072Z,7.96
2023-04-16T01:20:41.042Z,7.95
2023-04-16T01:21:41.062Z,7.95
2023-04-16T01:22:41.044Z,7.94
2023-04-16T01:23:41.041Z,7.94
2023-04-16T01:24:41.061Z,7.92
2023-04-16T01:25:41.051Z,7.94
2023-04-16T01:26:41.048Z,7.93
2023-04-16T01:27:41.044Z,7.94
2023-04-16T01:28:41.058Z,7.94
2023-04-16T01:29:41.079Z,7.93
2023-04-16T01:30:41.042Z,7.93
2023-04-16T01:31:41.080Z,7.93
2023-04-16T01:32:41.086Z,7.93
2023-04-16T01:33:43.874Z,7.92
2023-04-16T01:34:46.936Z,7.92
2023-04-16T01:36:41.075Z,7.91
2023-04-16T01:37:41.053Z,7.92
2023-04-16T01:38:41.049Z,7.92
2023-04-16T01:39:41.054Z,7.92
2023-04-16T01:40:41.066Z,7.92
2023-04-16T01:41:41.161Z,7.92
2023-04-16T01:42:41.062Z,7.92
2023-04-16T01:43:41.057Z,7.91
2023-04-16T01:44:41.062Z,7.92
2023-04-16T01:45:41.048Z,7.92
2023-04-16T01:46:41.096Z,7.92
2023-04-16T01:47:41.102Z,7.92
2023-04-16T01:48:41.050Z,7.91
2023-04-16T01:49:41.054Z,7.91
2023-04-16T01:50:41.048Z,7.91
2023-04-16T01:51:41.042Z,7.92
2023-04-16T01:52:41.076Z,7.92
2023-04-16T01:53:41.054Z,7.92
2023-04-16T01:54:41.533Z,7.91
2023-04-16T01:55:45.002Z,7.91
2023-04-16T01:56:47.872Z,7.91
2023-04-16T01:58:41.067Z,7.92
2023-04-16T01:59:41.121Z,7.91
2023-04-16T02:00:41.079Z,7.92
2023-04-16T02:01:41.061Z,7.91
2023-04-16T02:02:41.133Z,7.92
2023-04-16T02:03:41.168Z,7.92
2023-04-16T02:04:41.053Z,7.92
2023-04-16T02:05:41.050Z,7.92
2023-04-16T02:06:41.051Z,7.93
2023-04-16T02:07:41.066Z,7.93
2023-04-16T02:08:41.055Z,7.92
2023-04-16T02:09:41.048Z,7.92
2023-04-16T02:10:41.042Z,7.92
2023-04-16T02:11:41.068Z,7.92
2023-04-16T02:12:41.071Z,7.92
2023-04-16T02:13:41.052Z,7.91
2023-04-16T02:14:41.042Z,7.92
2023-04-16T02:15:41.618Z,7.91
2023-04-16T02:16:45.197Z,7.91
2023-04-16T02:17:48.039Z,7.9
2023-04-16T02:19:41.093Z,7.9
2023-04-16T02:20:41.071Z,7.9
2023-04-16T02:21:41.043Z,7.91
2023-04-16T02:22:41.046Z,7.91
2023-04-16T02:23:41.079Z,7.91
2023-04-16T02:24:41.043Z,7.91
2023-04-16T02:25:41.070Z,7.9
2023-04-16T02:26:41.060Z,7.9
2023-04-16T02:27:41.051Z,7.91
2023-04-16T02:28:41.047Z,7.91
2023-04-16T02:29:41.045Z,7.9
2023-04-16T02:30:41.088Z,7.9
2023-04-16T02:31:41.057Z,7.9
2023-04-16T02:32:41.050Z,7.9
2023-04-16T02:33:41.043Z,7.9
2023-04-16T02:34:41.053Z,7.89
2023-04-16T02:35:41.061Z,7.9
2023-04-16T02:36:41.741Z,7.89
2023-04-16T02:37:45.214Z,7.89
2023-04-16T02:38:48.184Z,7.89
2023-04-16T02:40:41.123Z,7.89
2023-04-16T02:41:41.040Z,7.88
2023-04-16T02:42:41.063Z,7.88
2023-04-16T02:43:41.051Z,7.89
2023-04-16T02:44:41.047Z,7.89
2023-04-16T02:45:41.072Z,7.89
2023-04-16T02:46:41.038Z,7.88
2023-04-16T02:47:41.062Z,7.88
2023-04-16T02:48:41.049Z,7.88
2023-04-16T02:49:41.056Z,7.89
2023-04-16T02:50:41.060Z,7.88
2023-04-16T02:51:41.057Z,7.87
2023-04-16T02:52:41.041Z,7.88
2023-04-16T02:53:41.053Z,7.88
2023-04-16T02:54:41.043Z,7.89
2023-04-16T02:55:41.054Z,7.89
2023-04-16T02:56:41.050Z,7.89
2023-04-16T02:57:41.773Z,7.88
2023-04-16T02:58:45.208Z,7.88
2023-04-16T02:59:47.762Z,7.87
2023-04-16T03:01:41.124Z,7.88
2023-04-16T03:02:41.117Z,7.87
2023-04-16T03:03:41.039Z,7.87
2023-04-16T03:04:41.047Z,7.87
2023-04-16T03:05:41.042Z,7.88
2023-04-16T03:06:41.045Z,7.87
2023-04-16T03:07:41.064Z,7.87
2023-04-16T03:08:41.075Z,7.87
2023-04-16T03:09:41.045Z,7.87
2023-04-16T03:10:41.051Z,7.86
2023-04-16T03:11:41.063Z,7.86
2023-04-16T03:12:41.050Z,7.86
2023-04-16T03:13:41.042Z,7.86
2023-04-16T03:14:41.038Z,7.86
2023-04-16T03:15:41.052Z,7.85
2023-04-16T03:16:41.041Z,7.86
2023-04-16T03:17:41.083Z,7.86
2023-04-16T03:18:41.846Z,7.86
2023-04-16T03:19:45.396Z,7.87
2023-04-16T03:20:48.370Z,7.86
2023-04-16T03:22:41.048Z,7.86
2023-04-16T03:23:41.045Z,7.85
2023-04-16T03:24:41.051Z,7.86
2023-04-16T03:25:41.059Z,7.86
2023-04-16T03:26:41.064Z,7.86
2023-04-16T03:27:41.037Z,7.85
2023-04-16T03:28:41.038Z,7.86
2023-04-16T03:29:41.098Z,7.85
2023-04-16T03:30:41.045Z,7.86
2023-04-16T03:31:41.068Z,7.85
2023-04-16T03:32:41.088Z,7.87
2023-04-16T03:33:41.050Z,7.86
2023-04-16T03:34:41.060Z,7.87
2023-04-16T03:35:41.047Z,7.86
2023-04-16T03:36:41.076Z,7.86
2023-04-16T03:37:41.051Z,7.85
2023-04-16T03:38:41.049Z,7.85
2023-04-16T03:39:41.971Z,7.87
2023-04-16T03:40:45.426Z,7.86
2023-04-16T03:41:48.367Z,7.87
2023-04-16T03:43:41.052Z,7.88
2023-04-16T03:44:41.043Z,7.87
2023-04-16T03:45:41.040Z,7.85
2023-04-16T03:46:41.097Z,7.85
2023-04-16T03:47:41.062Z,7.86
2023-04-16T03:48:41.070Z,7.87
2023-04-16T03:49:41.058Z,7.88
2023-04-16T03:50:41.254Z,7.86
2023-04-16T03:51:41.068Z,7.86
2023-04-16T03:52:41.046Z,7.87
2023-04-16T03:53:41.107Z,7.87
2023-04-16T03:54:41.049Z,7.89
2023-04-16T03:55:41.046Z,7.9
2023-04-16T03:56:41.061Z,7.91
2023-04-16T03:57:41.049Z,7.92
2023-04-16T03:58:41.053Z,7.91
2023-04-16T03:59:41.041Z,7.92
2023-04-16T04:00:42.199Z,7.9
2023-04-16T04:01:45.615Z,7.92
2023-04-16T04:02:48.689Z,7.93
2023-04-16T04:04:41.197Z,7.91
2023-04-16T04:05:41.097Z,7.92
2023-04-16T04:06:41.061Z,7.94
2023-04-16T04:07:41.109Z,7.94
2023-04-16T04:08:41.051Z,7.94
2023-04-16T04:09:41.063Z,7.94
2023-04-16T04:10:41.071Z,7.95
2023-04-16T04:11:41.046Z,7.95
2023-04-16T04:12:41.053Z,7.95
2023-04-16T04:13:41.046Z,7.95
2023-04-16T04:14:41.049Z,7.97
2023-04-16T04:15:41.047Z,7.97
2023-04-16T04:16:41.164Z,7.97
2023-04-16T04:17:41.162Z,7.96
2023-04-16T04:18:41.734Z,7.97
2023-04-16T04:19:50.873Z,7.96
2023-04-16T04:20:41.048Z,7.96
2023-04-16T04:21:42.295Z,7.96
2023-04-16T04:22:45.676Z,7.95
2023-04-16T04:23:48.669Z,7.95
2023-04-16T04:25:41.072Z,7.95
2023-04-16T04:26:41.035Z,7.92
2023-04-16T04:27:41.047Z,7.92
2023-04-16T04:28:41.055Z,7.94
2023-04-16T04:29:41.043Z,7.95
2023-04-16T04:30:41.059Z,7.94
2023-04-16T04:31:41.115Z,7.95
2023-04-16T04:32:41.117Z,7.95
2023-04-16T04:33:41.052Z,7.95
2023-04-16T04:34:41.062Z,7.95
2023-04-16T04:35:41.111Z,7.94
2023-04-16T04:36:41.048Z,7.95
2023-04-16T04:37:41.047Z,7.94
2023-04-16T04:38:41.045Z,7.95
2023-04-16T04:39:41.048Z,7.95
2023-04-16T04:40:41.069Z,7.94
2023-04-16T04:41:41.057Z,7.94
2023-04-16T04:42:41.071Z,7.92
2023-04-16T04:43:42.424Z,7.91
2023-04-16T04:44:45.908Z,7.89
2023-04-16T04:45:47.795Z,7.88
2023-04-16T04:46:41.042Z,7.87
2023-04-16T04:47:41.062Z,7.89
2023-04-16T04:48:41.056Z,7.9
2023-04-16T04:49:41.035Z,7.9
2023-04-16T04:50:41.061Z,7.9
2023-04-16T04:51:41.043Z,7.91
2023-04-16T04:52:41.059Z,7.91
2023-04-16T04:53:41.049Z,7.9
2023-04-16T04:54:41.053Z,7.92
2023-04-16T04:55:41.056Z,7.91
2023-04-16T04:56:41.050Z,7.91
2023-04-16T04:57:41.048Z,7.9
2023-04-16T04:58:41.043Z,7.9
2023-04-16T04:59:41.063Z,7.91
2023-04-16T05:00:41.054Z,7.91
2023-04-16T05:01:41.104Z,7.91
2023-04-16T05:02:41.132Z,7.92
2023-04-16T05:03:41.132Z,7.88
2023-04-16T05:04:42.477Z,7.91
2023-04-16T05:05:45.976Z,7.91
2023-04-16T05:06:47.332Z,7.91
2023-04-16T05:07:41.061Z,7.91
2023-04-16T05:08:41.051Z,7.9
2023-04-16T05:09:41.052Z,7.9
2023-04-16T05:10:41.061Z,7.91
2023-04-16T05:11:41.059Z,7.92
2023-04-16T05:12:41.058Z,7.93
2023-04-16T05:13:41.055Z,7.94
2023-04-16T05:14:41.047Z,7.95
2023-04-16T05:15:41.050Z,7.94
2023-04-16T05:16:41.119Z,7.95
2023-04-16T05:17:41.067Z,7.93
2023-04-16T05:18:41.055Z,7.93
2023-04-16T05:19:41.049Z,7.93
2023-04-16T05:20:41.051Z,7.94
2023-04-16T05:21:41.098Z,7.97
2023-04-16T05:22:41.056Z,7.96
2023-04-16T05:23:41.047Z,7.97
2023-04-16T05:24:41.058Z,7.96
2023-04-16T05:25:42.516Z,7.99
2023-04-16T05:26:46.022Z,8
2023-04-16T05:27:47.389Z,8.01
2023-04-16T05:28:41.046Z,8.01
2023-04-16T05:29:41.056Z,7.98
2023-04-16T05:30:41.132Z,7.98
2023-04-16T05:31:41.069Z,7.99
2023-04-16T05:32:41.161Z,7.99
2023-04-16T05:33:41.059Z,7.97
2023-04-16T05:34:41.047Z,7.95
2023-04-16T05:35:41.053Z,7.94
2023-04-16T05:36:41.072Z,7.94
2023-04-16T05:37:41.041Z,7.95
2023-04-16T05:38:41.056Z,7.93
2023-04-16T05:39:41.055Z,7.94
2023-04-16T05:40:41.049Z,7.92
2023-04-16T05:41:41.180Z,7.88
2023-04-16T05:42:41.052Z,7.85
2023-04-16T05:43:41.045Z,7.9
2023-04-16T05:44:41.260Z,7.9
2023-04-16T05:45:41.387Z,7.91
2023-04-16T05:46:42.690Z,7.92
2023-04-16T05:47:46.218Z,7.92
2023-04-16T05:48:47.516Z,7.9
2023-04-16T05:49:41.049Z,7.91
2023-04-16T05:50:41.118Z,7.9
2023-04-16T05:51:41.053Z,7.9
2023-04-16T05:52:41.050Z,7.9
2023-04-16T05:53:41.087Z,7.85
2023-04-16T05:54:41.039Z,7.85
2023-04-16T05:55:41.042Z,7.87
2023-04-16T05:56:41.046Z,7.89
2023-04-16T05:57:41.046Z,7.9
2023-04-16T05:58:41.084Z,7.91
2023-04-16T05:59:41.048Z,7.91
2023-04-16T06:00:41.052Z,7.92
2023-04-16T06:01:41.055Z,7.91
2023-04-16T06:02:41.226Z,7.91
2023-04-16T06:03:41.111Z,7.9
2023-04-16T06:04:41.042Z,7.92
2023-04-16T06:05:41.083Z,7.97
2023-04-16T06:06:41.046Z,7.96
2023-04-16T06:07:42.698Z,8
2023-04-16T06:08:46.268Z,8.02
2023-04-16T06:09:47.561Z,8
2023-04-16T06:10:41.102Z,8.03
2023-04-16T06:11:41.150Z,8.04
2023-04-16T06:12:41.079Z,8.01
2023-04-16T06:13:41.056Z,8.03
2023-04-16T06:14:41.042Z,8.07
2023-04-16T06:15:41.088Z,8.08
2023-04-16T06:16:41.044Z,8.05
2023-04-16T06:17:41.126Z,8.07
2023-04-16T06:18:41.048Z,8.1
2023-04-16T06:19:41.058Z,8.11
2023-04-16T06:20:41.055Z,8.07
2023-04-16T06:21:41.045Z,8.1
2023-04-16T06:22:41.067Z,8.07
2023-04-16T06:23:41.048Z,8.09
2023-04-16T06:24:41.050Z,8.09
2023-04-16T06:25:41.052Z,8.11
2023-04-16T06:26:41.047Z,8.12
2023-04-16T06:27:41.054Z,8.15
2023-04-16T06:28:42.870Z,8.14
2023-04-16T06:29:45.833Z,8.15
2023-04-16T06:30:47.723Z,8.16
2023-04-16T06:31:41.064Z,8.12
2023-04-16T06:32:41.205Z,8.1
2023-04-16T06:33:41.047Z,8.12
2023-04-16T06:34:41.037Z,8.13
2023-04-16T06:35:41.077Z,8.1
2023-04-16T06:36:41.046Z,8.11
2023-04-16T06:37:41.161Z,8.14
2023-04-16T06:38:41.042Z,8.12
2023-04-16T06:39:41.045Z,8.16
2023-04-16T06:40:41.071Z,8.17
2023-04-16T06:41:41.036Z,8.11
2023-04-16T06:42:41.464Z,8.15
2023-04-16T06:43:41.052Z,8.12
2023-04-16T06:44:41.047Z,8.15
2023-04-16T06:45:41.060Z,8.15
2023-04-16T06:46:41.056Z,8.14
2023-04-16T06:47:41.090Z,8.14
2023-04-16T06:48:41.053Z,8.17
2023-04-16T06:49:42.963Z,8.21
2023-04-16T06:50:46.463Z,8.23
2023-04-16T06:51:47.813Z,8.18
2023-04-16T06:52:41.046Z,8.12
2023-04-16T06:53:41.067Z,8.12
2023-04-16T06:54:41.053Z,8.19
2023-04-16T06:55:41.059Z,8.16
2023-04-16T06:56:41.050Z,8.17
2023-04-16T06:57:41.060Z,8.17
2023-04-16T06:58:41.058Z,8.15
2023-04-16T06:59:41.044Z,8.15
2023-04-16T07:00:41.099Z,8.14
2023-04-16T07:01:41.051Z,8.16
2023-04-16T07:02:41.115Z,8.11
2023-04-16T07:03:41.234Z,8.09
2023-04-16T07:04:41.044Z,8.09
2023-04-16T07:05:41.041Z,8.1
2023-04-16T07:06:41.043Z,8.13
2023-04-16T07:07:41.039Z,8.09
2023-04-16T07:08:41.050Z,8.12
2023-04-16T07:09:41.050Z,8.11
2023-04-16T07:10:43.040Z,8.04
2023-04-16T07:11:46.011Z,8.02
2023-04-16T07:12:47.897Z,8.01
2023-04-16T07:13:41.056Z,8.01
2023-04-16T07:14:41.061Z,7.99
2023-04-16T07:15:41.067Z,8.01
2023-04-16T07:16:41.068Z,7.98
2023-04-16T07:17:41.084Z,8.01
2023-04-16T07:18:41.051Z,7.97
2023-04-16T07:19:41.045Z,8.01
2023-04-16T07:20:41.059Z,8
2023-04-16T07:21:41.045Z,8.02
2023-04-16T07:22:41.042Z,8.06
2023-04-16T07:23:41.043Z,8.07
2023-04-16T07:24:41.210Z,8.07
2023-04-16T07:25:41.178Z,8.1
2023-04-16T07:26:41.045Z,8.1
2023-04-16T07:27:41.076Z,8.06
2023-04-16T07:28:41.055Z,8.05
2023-04-16T07:29:41.056Z,8.06
2023-04-16T07:30:41.045Z,8.09
2023-04-16T07:31:43.171Z,8.06
2023-04-16T07:32:46.138Z,8.08
2023-04-16T07:33:47.995Z,8.08
2023-04-16T07:34:41.060Z,8.06
2023-04-16T07:35:41.057Z,8.06
2023-04-16T07:36:41.042Z,8.11
2023-04-16T07:37:41.042Z,8.15
2023-04-16T07:38:41.067Z,8.19
2023-04-16T07:39:41.051Z,8.16
2023-04-16T07:40:41.065Z,8.14
2023-04-16T07:41:41.088Z,8.16
2023-04-16T07:42:41.177Z,8.2
2023-04-16T07:43:41.045Z,8.23
2023-04-16T07:44:41.103Z,8.27
2023-04-16T07:45:42.088Z,8.29
2023-04-16T07:46:46.686Z,8.29
2023-04-16T07:47:41.086Z,8.29
2023-04-16T07:48:41.040Z,8.28
2023-04-16T07:49:41.046Z,8.32
2023-04-16T07:50:41.043Z,8.34
2023-04-16T07:51:41.059Z,8.32
2023-04-16T07:52:41.062Z,8.33
2023-04-16T07:53:43.364Z,8.37
2023-04-16T07:54:46.278Z,8.42
2023-04-16T07:56:41.058Z,8.43
2023-04-16T07:57:41.065Z,8.47
2023-04-16T07:58:41.058Z,8.49
2023-04-16T07:59:41.060Z,8.53
2023-04-16T08:00:41.049Z,8.51
2023-04-16T08:01:41.038Z,8.55
2023-04-16T08:02:41.223Z,8.56
2023-04-16T08:03:41.255Z,8.53
2023-04-16T08:04:41.218Z,8.54
2023-04-16T08:05:41.049Z,8.47
2023-04-16T08:06:41.150Z,8.51
2023-04-16T08:07:41.050Z,8.43
2023-04-16T08:08:41.072Z,8.46
2023-04-16T08:09:41.047Z,8.44
2023-04-16T08:10:41.056Z,8.46
2023-04-16T08:11:41.062Z,8.51
2023-04-16T08:12:41.075Z,8.5
2023-04-16T08:13:41.059Z,8.49
2023-04-16T08:14:43.367Z,8.59
2023-04-16T08:15:46.449Z,8.54
2023-04-16T08:17:41.088Z,8.55
2023-04-16T08:18:41.055Z,8.57
2023-04-16T08:19:41.061Z,8.5
2023-04-16T08:20:41.043Z,8.51
2023-04-16T08:21:41.111Z,8.52
2023-04-16T08:22:41.043Z,8.48
2023-04-16T08:23:41.057Z,8.49
2023-04-16T08:24:41.066Z,8.47
2023-04-16T08:25:41.038Z,8.48
2023-04-16T08:26:41.050Z,8.48
2023-04-16T08:27:41.050Z,8.5
2023-04-16T08:28:41.089Z,8.53
2023-04-16T08:29:41.057Z,8.44
2023-04-16T08:30:41.055Z,8.47
2023-04-16T08:31:41.124Z,8.48
2023-04-16T08:32:41.063Z,8.47
2023-04-16T08:33:41.109Z,8.52
2023-04-16T08:34:41.116Z,8.51
2023-04-16T08:35:43.503Z,8.52
2023-04-16T08:36:46.530Z,8.53
2023-04-16T08:38:41.048Z,8.53
2023-04-16T08:39:41.055Z,8.53
2023-04-16T08:40:41.056Z,8.48
2023-04-16T08:41:41.076Z,8.48
2023-04-16T08:42:41.059Z,8.52
2023-04-16T08:43:41.058Z,8.56
2023-04-16T08:44:41.050Z,8.63
2023-04-16T08:45:41.081Z,8.66
2023-04-16T08:46:41.104Z,8.65
2023-04-16T08:47:41.059Z,8.66
2023-04-16T08:48:41.045Z,8.64
2023-04-16T08:49:41.042Z,8.61
2023-04-16T08:50:41.057Z,8.68
2023-04-16T08:51:41.072Z,8.63
2023-04-16T08:52:41.201Z,8.68
2023-04-16T08:53:41.055Z,8.73
2023-04-16T08:54:41.055Z,8.73
2023-04-16T08:55:41.152Z,8.73
2023-04-16T08:56:43.601Z,8.78
2023-04-16T08:57:46.569Z,8.86
2023-04-16T08:59:41.055Z,8.89
2023-04-16T09:00:41.050Z,8.95
2023-04-16T09:01:41.056Z,9.03
2023-04-16T09:02:41.172Z,9.11
2023-04-16T09:03:41.129Z,9.17
2023-04-16T09:04:41.169Z,9.26
2023-04-16T09:05:41.058Z,9.43
2023-04-16T09:06:41.054Z,9.52
2023-04-16T09:07:41.042Z,9.44
2023-04-16T09:08:41.050Z,9.43
2023-04-16T09:09:41.054Z,9.51
2023-04-16T09:10:41.044Z,9.49
2023-04-16T09:11:41.057Z,9.38
2023-04-16T09:12:41.048Z,9.47
2023-04-16T09:13:41.074Z,9.36
2023-04-16T09:14:41.044Z,9.41
2023-04-16T09:15:41.049Z,9.4
2023-04-16T09:16:41.422Z,9.32
2023-04-16T09:17:43.538Z,9.36
2023-04-16T09:18:46.667Z,9.34
2023-04-16T09:20:41.086Z,9.45
2023-04-16T09:21:41.053Z,9.52
2023-04-16T09:22:41.148Z,9.56
2023-04-16T09:23:41.076Z,9.57
2023-04-16T09:24:41.084Z,9.55
2023-04-16T09:25:41.124Z,9.43
2023-04-16T09:26:41.050Z,9.44
2023-04-16T09:27:41.218Z,9.46
2023-04-16T09:28:41.069Z,9.39
2023-04-16T09:29:41.041Z,9.42
2023-04-16T09:30:41.050Z,9.49
2023-04-16T09:31:41.154Z,9.48
2023-04-16T09:32:41.092Z,9.57
2023-04-16T09:33:41.046Z,9.63
2023-04-16T09:34:41.046Z,9.68
2023-04-16T09:35:41.048Z,9.63
2023-04-16T09:36:41.075Z,9.53
2023-04-16T09:37:41.474Z,9.52
2023-04-16T09:38:43.671Z,9.54
2023-04-16T09:39:46.771Z,9.54
2023-04-16T09:41:41.067Z,9.67
2023-04-16T09:42:41.042Z,9.72
2023-04-16T09:43:41.049Z,9.79
2023-04-16T09:44:41.053Z,9.85
2023-04-16T09:45:41.368Z,9.88
2023-04-16T09:46:41.087Z,9.85
2023-04-16T09:47:41.145Z,9.88
2023-04-16T09:48:41.059Z,9.98
2023-04-16T09:49:41.055Z,10.07
2023-04-16T09:50:41.087Z,10.2
2023-04-16T09:51:41.056Z,10.31
2023-04-16T09:52:41.060Z,10.41
2023-04-16T09:53:41.052Z,10.43
2023-04-16T09:54:41.050Z,10.51
2023-04-16T09:55:41.135Z,10.54
2023-04-16T09:56:41.060Z,10.59
2023-04-16T09:57:41.054Z,10.53
2023-04-16T09:58:41.525Z,10.48
2023-04-16T09:59:43.722Z,10.51
2023-04-16T10:00:46.892Z,10.44
2023-04-16T10:02:41.086Z,10.56
2023-04-16T10:03:41.277Z,10.65
2023-04-16T10:04:41.289Z,10.77
2023-04-16T10:05:41.061Z,10.89
2023-04-16T10:06:41.052Z,10.99
2023-04-16T10:07:41.054Z,11.09
2023-04-16T10:08:41.064Z,11.15
2023-04-16T10:09:41.120Z,11.21
2023-04-16T10:10:41.062Z,11.25
2023-04-16T10:11:41.052Z,11.31
2023-04-16T10:12:41.062Z,11.32
2023-04-16T10:13:41.338Z,11.24
2023-04-16T10:14:41.049Z,11.2
2023-04-16T10:15:41.051Z,11.17
2023-04-16T10:16:41.149Z,10.89
2023-04-16T10:17:41.080Z,10.85
2023-04-16T10:18:41.054Z,10.87
2023-04-16T10:19:41.563Z,10.88
2023-04-16T10:20:44.577Z,10.9
2023-04-16T10:21:46.910Z,10.87
2023-04-16T10:23:41.052Z,11.02
2023-04-16T10:24:41.160Z,11.11
2023-04-16T10:25:41.071Z,11.2
2023-04-16T10:26:41.052Z,11.29
2023-04-16T10:27:41.065Z,11.38
2023-04-16T10:28:41.056Z,11.46
2023-04-16T10:29:41.296Z,11.54
2023-04-16T10:30:41.090Z,11.56
2023-04-16T10:31:41.069Z,11.43
2023-04-16T10:32:41.066Z,11.41
2023-04-16T10:33:41.055Z,11.41
2023-04-16T10:34:41.043Z,11.38
2023-04-16T10:35:41.065Z,11.23
2023-04-16T10:36:41.048Z,11.1
2023-04-16T10:37:41.105Z,11.03
2023-04-16T10:38:41.281Z,11.03
2023-04-16T10:39:41.042Z,11.05
2023-04-16T10:40:41.364Z,11.02
2023-04-16T10:41:44.618Z,10.92
2023-04-16T10:42:47.084Z,10.82
2023-04-16T10:44:45.365Z,10.81
2023-04-16T10:45:41.205Z,10.77
2023-04-16T10:46:41.092Z,10.81
2023-04-16T10:47:41.059Z,10.78
2023-04-16T10:48:49.526Z,10.78
2023-04-16T10:49:41.093Z,10.86
2023-04-16T10:50:41.046Z,10.88
2023-04-16T10:51:41.051Z,10.87
2023-04-16T10:52:41.057Z,10.9
2023-04-16T10:53:41.051Z,10.99
2023-04-16T10:54:41.068Z,11.09
2023-04-16T10:55:41.051Z,11.19
2023-04-16T10:56:41.229Z,11.2
2023-04-16T10:57:41.054Z,11.26
2023-04-16T10:58:41.057Z,11.33
2023-04-16T10:59:41.149Z,11.35
2023-04-16T11:00:41.051Z,11.25
2023-04-16T11:01:41.086Z,11.24
2023-04-16T11:02:41.600Z,11.18
2023-04-16T11:03:44.557Z,11.2
2023-04-16T11:04:47.481Z,11.23
2023-04-16T11:06:41.052Z,11.3
2023-04-16T11:07:41.061Z,11.32
2023-04-16T11:08:53.718Z,11.27
2023-04-16T11:09:41.055Z,11.12
2023-04-16T11:10:41.148Z,11.11
2023-04-16T11:11:41.040Z,11.12
2023-04-16T11:12:41.058Z,11.1
2023-04-16T11:13:43.151Z,11.1
2023-04-16T11:14:41.051Z,11.1
2023-04-16T11:15:41.091Z,11.1
2023-04-16T11:16:41.047Z,11.05
2023-04-16T11:17:41.092Z,11.04
2023-04-16T11:18:47.766Z,11.01
2023-04-16T11:19:41.043Z,10.99
2023-04-16T11:20:41.072Z,10.95
2023-04-16T11:21:41.047Z,10.87
2023-04-16T11:22:41.043Z,10.83
2023-04-16T11:23:41.525Z,10.78
2023-04-16T11:24:45.143Z,10.72
2023-04-16T11:25:47.371Z,10.67
2023-04-16T11:27:41.055Z,10.57
2023-04-16T11:28:41.049Z,10.59
2023-04-16T11:29:41.067Z,10.57
2023-04-16T11:30:41.059Z,10.54
2023-04-16T11:31:41.056Z,10.49
2023-04-16T11:32:41.064Z,10.53
2023-04-16T11:33:41.039Z,10.52
2023-04-16T11:34:41.049Z,10.52
2023-04-16T11:35:41.048Z,10.55
2023-04-16T11:36:41.046Z,10.49
2023-04-16T11:37:41.058Z,10.44
2023-04-16T11:38:41.048Z,10.47
2023-04-16T11:39:41.069Z,10.45
2023-04-16T11:40:41.053Z,10.49
2023-04-16T11:41:41.038Z,10.45
2023-04-16T11:42:41.100Z,10.42
2023-04-16T11:43:41.047Z,10.45
2023-04-16T11:44:41.716Z,10.47
2023-04-16T11:45:44.740Z,10.54
2023-04-16T11:46:48.192Z,10.53
2023-04-16T11:48:41.146Z,10.59
2023-04-16T11:49:41.070Z,10.58
2023-04-16T11:50:41.046Z,10.61
2023-04-16T11:51:41.064Z,10.6
2023-04-16T11:52:41.049Z,10.63
2023-04-16T11:53:41.044Z,10.73
2023-04-16T11:54:41.081Z,10.75
2023-04-16T11:55:41.039Z,10.84
2023-04-16T11:56:41.046Z,10.86
2023-04-16T11:57:41.046Z,10.86
2023-04-16T11:58:44.047Z,10.87
2023-04-16T12:00:01.163Z,10.96
2023-04-16T12:00:41.038Z,11.04
2023-04-16T12:01:41.050Z,11.11
2023-04-16T12:02:41.203Z,11.16
2023-04-16T12:03:41.188Z,11.18
2023-04-16T12:04:41.111Z,11.19
2023-04-16T12:05:41.683Z,11.15
2023-04-16T12:06:45.334Z,11.21
2023-04-16T12:07:48.163Z,11.28
2023-04-16T12:09:42.124Z,11.2
2023-04-16T12:10:41.040Z,11.17
2023-04-16T12:11:41.204Z,11.25
2023-04-16T12:12:41.053Z,11.18
2023-04-16T12:13:41.044Z,11.23
2023-04-16T12:14:41.063Z,11.3
2023-04-16T12:15:41.051Z,11.23
2023-04-16T12:16:41.067Z,11.28
2023-04-16T12:17:41.063Z,11.33
2023-04-16T12:18:41.052Z,11.32
2023-04-16T12:19:41.079Z,11.23
2023-04-16T12:20:41.062Z,11.18
2023-04-16T12:21:41.050Z,11.1
2023-04-16T12:22:41.052Z,11.04
2023-04-16T12:23:41.053Z,11.07
2023-04-16T12:24:41.079Z,11.08
2023-04-16T12:25:41.055Z,11.03
2023-04-16T12:26:41.771Z,11.01
2023-04-16T12:27:45.369Z,11
2023-04-16T12:28:48.225Z,11.02
2023-04-16T12:30:41.124Z,10.98
2023-04-16T12:31:41.043Z,10.97
2023-04-16T12:32:41.059Z,10.95
2023-04-16T12:33:41.042Z,10.92
2023-04-16T12:34:48.294Z,10.92
2023-04-16T12:35:41.042Z,10.93
2023-04-16T12:36:41.047Z,10.97
2023-04-16T12:37:41.071Z,11.03
2023-04-16T12:38:41.044Z,11.07
2023-04-16T12:39:41.046Z,11.11
2023-04-16T12:40:41.311Z,11.2
2023-04-16T12:41:41.060Z,11.25
2023-04-16T12:42:41.034Z,11.29
2023-04-16T12:43:41.052Z,11.21
2023-04-16T12:44:41.049Z,11.17
2023-04-16T12:45:41.035Z,11.19
2023-04-16T12:46:41.110Z,11.26
2023-04-16T12:47:41.899Z,11.31
2023-04-16T12:48:45.538Z,11.32
2023-04-16T12:49:48.381Z,11.38
2023-04-16T12:51:41.055Z,11.54
2023-04-16T12:52:41.073Z,11.61
2023-04-16T12:53:41.050Z,11.62
2023-04-16T12:54:41.057Z,11.55
2023-04-16T12:55:41.071Z,11.53
2023-04-16T12:56:41.042Z,11.53
2023-04-16T12:57:41.053Z,11.5
2023-04-16T12:58:41.151Z,11.47
2023-04-16T12:59:41.058Z,11.44
2023-04-16T13:00:41.049Z,11.35
2023-04-16T13:01:41.209Z,11.34
2023-04-16T13:02:41.141Z,11.26
2023-04-16T13:03:41.151Z,11.25
2023-04-16T13:04:41.142Z,11.16
2023-04-16T13:05:41.051Z,11.11
2023-04-16T13:06:41.038Z,11.12
2023-04-16T13:07:41.048Z,11.12
2023-04-16T13:08:41.989Z,11.08
2023-04-16T13:09:45.643Z,11.1
2023-04-16T13:10:48.509Z,11.15
2023-04-16T13:12:41.052Z,11.17
2023-04-16T13:13:41.069Z,11.14
2023-04-16T13:14:41.692Z,11.12
2023-04-16T13:15:41.078Z,11.13
2023-04-16T13:16:41.083Z,11.15
2023-04-16T13:17:41.073Z,11.16
2023-04-16T13:18:41.102Z,11.23
2023-04-16T13:19:41.331Z,11.22
2023-04-16T13:20:41.042Z,11.2
2023-04-16T13:21:41.047Z,11.24
2023-04-16T13:22:41.086Z,11.21
2023-04-16T13:23:41.052Z,11.13
2023-04-16T13:24:41.067Z,11.13
2023-04-16T13:25:41.044Z,11.1
2023-04-16T13:26:41.047Z,11.08
2023-04-16T13:27:41.043Z,11.08
2023-04-16T13:28:41.067Z,11.03
2023-04-16T13:29:42.117Z,10.98
2023-04-16T13:30:45.696Z,11.02
2023-04-16T13:31:48.788Z,11
2023-04-16T13:33:41.059Z,10.99
2023-04-16T13:34:41.047Z,11.03
2023-04-16T13:35:41.087Z,11.05
2023-04-16T13:36:41.055Z,11.07
2023-04-16T13:37:41.058Z,11.03
2023-04-16T13:38:41.046Z,11.05
2023-04-16T13:39:41.052Z,11.03
2023-04-16T13:40:41.054Z,11.02
2023-04-16T13:41:41.052Z,11.07
2023-04-16T13:42:41.043Z,11.1
2023-04-16T13:43:41.048Z,11.15
2023-04-16T13:44:41.050Z,11.15